KFAF/FAF METAR and TAF weather

Enter ICAO airport designator
Station Type Date Time Source
KFAF METAR 2021/03/03 00:56 UTC NOAA

KFAF 030056Z AUTO 12003KT 10SM CLR 02/M04 A3021 RMK AO2 SLP233 T00221039 $


Station Type Date Time Source
KFAF Decoded METAR 2021/03/03 00:56 UTC NOAA

Fort Eustis / Felker, VA, United States (KFAF) 37-08N 076-37W
Mar 02, 2021 - 07:56 PM EST / 2021.03.03 0056 UTC
Wind: from the ESE (120 degrees) at 3 MPH (3 KT):0
Visibility: 10 mile(s):0
Sky conditions: clear
Temperature: 36.0 F (2.2 C)
Dew Point: 25.0 F (-3.9 C)
Relative Humidity: 63%
Pressure (altimeter): 30.21 in. Hg (1023 hPa)
ob: KFAF 030056Z AUTO 12003KT 10SM CLR 02/M04 A3021 RMK AO2 SLP233 T00221039
cycle: 1

Station Type Date Time Source
KFAF TAF 2021/03/02 19:59 UTC NOAA

TAF KFAF 021900Z 0219/0401 VRB06KT 9999 SKC QNH2988INS TX10/0319Z TN00/0312Z

Example: see airport list